createdAt,value
2022-12-19T00:01:57.672Z,30.42
2022-12-19T00:04:25.241Z,33.10
2022-12-19T00:06:52.767Z,27.25
2022-12-19T00:09:20.269Z,34.45
2022-12-19T00:11:48.781Z,37.40
2022-12-19T00:14:16.268Z,31.70
2022-12-19T00:16:44.045Z,31.05
2022-12-19T00:19:13.480Z,27.38
2022-12-19T00:21:40.973Z,33.10
2022-12-19T00:24:15.354Z,24.67
2022-12-19T00:26:49.555Z,31.40
2022-12-19T00:29:17.045Z,29.85
2022-12-19T00:31:44.839Z,35.80
2022-12-19T00:34:13.744Z,27.38
2022-12-19T00:36:41.363Z,27.05
2022-12-19T00:39:10.179Z,30.30
2022-12-19T00:41:41.566Z,32.53
2022-12-19T00:44:12.187Z,24.77
2022-12-19T00:46:39.819Z,32.25
2022-12-19T00:49:07.294Z,34.75
2022-12-19T00:51:38.057Z,26.98
2022-12-19T00:54:07.284Z,25.15
2022-12-19T00:56:37.502Z,32.00
2022-12-19T00:59:06.609Z,35.88
2022-12-19T01:01:36.381Z,29.10
2022-12-19T01:07:02.301Z,28.15
2022-12-19T01:09:30.409Z,27.70
2022-12-19T01:12:15.722Z,29.95
2022-12-19T01:14:43.704Z,34.30
2022-12-19T01:17:11.398Z,29.58
2022-12-19T01:19:43.623Z,30.25
2022-12-19T01:22:27.927Z,24.10
2022-12-19T01:24:55.560Z,29.80
2022-12-19T01:27:23.005Z,30.00
2022-12-19T01:29:52.881Z,29.75
2022-12-19T01:32:21.205Z,28.00
2022-12-19T01:34:48.660Z,29.33
2022-12-19T01:37:16.155Z,29.33
2022-12-19T01:39:46.116Z,29.13
2022-12-19T01:42:16.567Z,33.03
2022-12-19T01:45:05.087Z,30.48
2022-12-19T01:47:36.267Z,30.65
2022-12-19T01:50:04.805Z,34.08
2022-12-19T01:52:32.471Z,31.90
2022-12-19T01:55:02.214Z,35.88
2022-12-19T01:57:30.484Z,29.92
2022-12-19T02:00:01.343Z,33.60
2022-12-19T02:02:32.934Z,32.88
2022-12-19T02:05:01.466Z,30.38
2022-12-19T02:07:29.283Z,32.42
2022-12-19T02:09:58.484Z,36.83
2022-12-19T02:12:28.937Z,29.08
2022-12-19T02:15:02.718Z,31.25
2022-12-19T02:17:42.502Z,34.60
2022-12-19T02:20:40.795Z,29.95
2022-12-19T02:23:34.915Z,30.38
2022-12-19T02:26:23.050Z,30.90
2022-12-19T02:29:10.006Z,32.30
2022-12-19T02:31:45.696Z,34.08
2022-12-19T02:34:21.633Z,37.83
2022-12-19T02:36:55.431Z,33.83
2022-12-19T02:39:29.601Z,33.42
2022-12-19T02:41:59.943Z,26.30
2022-12-19T02:44:31.437Z,32.80
2022-12-19T02:47:03.056Z,34.42
2022-12-19T02:49:31.421Z,27.10
2022-12-19T02:51:59.013Z,29.45
2022-12-19T02:54:26.773Z,32.75
2022-12-19T02:57:02.370Z,28.65
2022-12-19T02:59:47.692Z,24.65
2022-12-19T03:02:27.893Z,27.98
2022-12-19T03:05:00.827Z,28.38
2022-12-19T03:07:32.929Z,26.73
2022-12-19T03:10:10.000Z,27.23
2022-12-19T03:12:41.403Z,27.05
2022-12-19T03:15:12.979Z,34.83
2022-12-19T03:17:42.316Z,25.63
2022-12-19T03:20:19.588Z,24.95
2022-12-19T03:22:47.524Z,25.27
2022-12-19T03:25:15.339Z,26.17
2022-12-19T03:27:43.778Z,27.42
2022-12-19T03:30:14.158Z,24.83
2022-12-19T03:32:46.193Z,24.55
2022-12-19T03:35:18.550Z,28.60
2022-12-19T03:37:49.687Z,27.80
2022-12-19T03:40:19.690Z,24.15
2022-12-19T03:43:07.014Z,31.83
2022-12-19T03:45:44.013Z,29.38
2022-12-19T03:48:17.687Z,27.83
2022-12-19T03:50:54.886Z,27.35
2022-12-19T03:53:37.354Z,27.60
2022-12-19T03:56:14.582Z,27.15
2022-12-19T03:58:48.806Z,29.33
2022-12-19T04:01:16.880Z,28.05
2022-12-19T04:03:45.909Z,22.65
2022-12-19T04:06:15.863Z,30.45
2022-12-19T04:08:43.715Z,29.30
2022-12-19T04:11:19.297Z,28.60
2022-12-19T04:13:53.153Z,30.40
2022-12-19T04:16:27.903Z,26.08
2022-12-19T04:19:04.241Z,30.42
2022-12-19T04:21:37.709Z,32.53
2022-12-19T04:24:12.036Z,30.98
2022-12-19T04:26:42.193Z,30.35
2022-12-19T04:29:13.034Z,30.08
2022-12-19T04:31:41.178Z,33.03
2022-12-19T04:34:09.986Z,28.35
2022-12-19T04:36:37.503Z,31.75
2022-12-19T04:39:05.173Z,31.90
2022-12-19T04:41:32.631Z,30.85
2022-12-19T04:44:00.101Z,23.20
2022-12-19T04:46:27.567Z,33.08
2022-12-19T04:48:55.024Z,35.08
2022-12-19T04:51:23.831Z,29.33
2022-12-19T04:53:51.288Z,33.13
2022-12-19T04:56:18.737Z,27.17
2022-12-19T04:58:46.181Z,28.42
2022-12-19T05:01:14.187Z,36.78
2022-12-19T05:03:42.212Z,31.50
2022-12-19T05:06:12.035Z,27.38
2022-12-19T05:08:42.343Z,32.88
2022-12-19T05:11:14.583Z,30.58
2022-12-19T05:13:46.546Z,23.95
2022-12-19T05:16:15.783Z,31.52
2022-12-19T05:18:43.907Z,27.42
2022-12-19T05:21:11.910Z,22.02
2022-12-19T05:23:40.994Z,27.92
2022-12-19T05:26:08.874Z,26.65
2022-12-19T05:28:36.396Z,26.85
2022-12-19T05:31:05.988Z,27.90
2022-12-19T05:33:33.671Z,28.83
2022-12-19T05:36:01.366Z,32.65
2022-12-19T05:38:29.372Z,27.63
2022-12-19T05:40:58.632Z,28.48
2022-12-19T05:43:26.380Z,25.75
2022-12-19T05:45:53.903Z,30.67
2022-12-19T05:48:21.351Z,32.70
2022-12-19T05:50:50.100Z,27.38
2022-12-19T05:53:20.720Z,28.00
2022-12-19T05:55:52.050Z,28.07
2022-12-19T05:58:20.866Z,27.08
2022-12-19T06:00:48.339Z,23.27
2022-12-19T06:03:15.847Z,28.50
2022-12-19T06:05:43.386Z,26.95
2022-12-19T06:08:11.510Z,26.83
2022-12-19T06:10:39.061Z,24.55
2022-12-19T06:13:06.832Z,26.25
2022-12-19T06:15:35.637Z,36.20
2022-12-19T06:18:03.104Z,24.52
2022-12-19T06:20:30.567Z,28.10
2022-12-19T06:22:58.018Z,20.75
2022-12-19T06:25:25.489Z,20.90
2022-12-19T06:27:52.928Z,30.88
2022-12-19T06:30:20.404Z,24.88
2022-12-19T06:32:49.193Z,21.10
2022-12-19T06:35:16.665Z,23.05
2022-12-19T06:37:44.111Z,22.08
2022-12-19T06:40:33.739Z,24.58
2022-12-19T06:43:00.229Z,25.73
2022-12-19T06:45:27.692Z,27.30
2022-12-19T06:47:59.461Z,27.08
2022-12-19T06:50:27.407Z,24.92
2022-12-19T06:52:54.854Z,21.20
2022-12-19T06:55:22.360Z,24.02
2022-12-19T06:57:49.801Z,24.98
2022-12-19T07:00:17.864Z,20.15
2022-12-19T07:02:49.099Z,25.05
2022-12-19T07:05:18.073Z,21.45
2022-12-19T07:07:45.531Z,24.92
2022-12-19T07:10:13.061Z,24.38
2022-12-19T07:12:40.557Z,24.33
2022-12-19T07:15:08.659Z,23.65
2022-12-19T07:17:37.137Z,20.92
2022-12-19T07:20:05.257Z,23.23
2022-12-19T07:22:37.294Z,20.77
2022-12-19T07:25:06.912Z,25.67
2022-12-19T07:27:36.089Z,19.92
2022-12-19T07:30:05.550Z,23.70
2022-12-19T07:32:33.067Z,24.30
2022-12-19T07:35:00.552Z,25.13
2022-12-19T07:37:28.030Z,23.52
2022-12-19T07:39:56.830Z,27.48
2022-12-19T07:42:27.032Z,26.88
2022-12-19T07:44:58.334Z,25.38
2022-12-19T07:47:27.458Z,25.55
2022-12-19T07:49:54.986Z,23.90
2022-12-19T07:52:22.455Z,25.10
2022-12-19T07:54:52.701Z,27.02
2022-12-19T07:57:21.727Z,30.27
2022-12-19T07:59:49.221Z,27.70
2022-12-19T08:02:16.735Z,32.50
2022-12-19T08:04:44.276Z,28.33
2022-12-19T08:07:12.674Z,23.50
2022-12-19T08:09:40.155Z,27.48
2022-12-19T08:12:07.868Z,25.40
2022-12-19T08:14:36.785Z,24.60
2022-12-19T08:17:20.418Z,30.48
2022-12-19T08:19:48.553Z,25.10
2022-12-19T08:22:15.996Z,22.67
2022-12-19T08:24:43.415Z,28.63
2022-12-19T08:27:10.972Z,25.55
2022-12-19T08:29:39.799Z,26.42
2022-12-19T08:32:07.246Z,23.70
2022-12-19T08:34:34.750Z,28.45
2022-12-19T08:37:02.213Z,25.98
2022-12-19T08:39:29.696Z,27.20
2022-12-19T08:41:57.189Z,24.75
2022-12-19T08:44:24.626Z,27.48
2022-12-19T08:46:53.552Z,28.45
2022-12-19T08:49:21.374Z,25.58
2022-12-19T08:51:48.814Z,23.02
2022-12-19T08:54:16.576Z,27.27
2022-12-19T08:56:46.079Z,27.17
2022-12-19T08:59:16.068Z,22.55
2022-12-19T09:01:54.581Z,25.95
2022-12-19T09:05:03.653Z,24.58
2022-12-19T09:07:09.943Z,23.42
2022-12-19T09:09:37.409Z,24.38
2022-12-19T09:12:05.083Z,25.77
2022-12-19T09:14:34.557Z,26.52
2022-12-19T09:17:03.452Z,20.08
2022-12-19T09:19:32.481Z,23.88
2022-12-19T09:22:00.306Z,26.23
2022-12-19T09:24:28.180Z,20.17
2022-12-19T09:26:55.733Z,23.90
2022-12-19T09:29:23.245Z,28.00
2022-12-19T09:31:55.651Z,20.98
2022-12-19T09:34:34.849Z,23.15
2022-12-19T09:37:06.503Z,23.05
2022-12-19T09:39:34.883Z,22.83
2022-12-19T09:42:28.117Z,18.77
2022-12-19T09:45:11.416Z,27.52
2022-12-19T09:47:45.020Z,23.58
2022-12-19T09:50:27.923Z,22.38
2022-12-19T09:53:01.159Z,20.42
2022-12-19T09:55:33.940Z,25.27
2022-12-19T09:58:08.341Z,26.25
2022-12-19T10:00:40.647Z,19.38
2022-12-19T10:03:17.181Z,20.88
2022-12-19T10:06:35.423Z,24.40
2022-12-19T10:08:54.970Z,22.45
2022-12-19T10:12:44.176Z,20.02
2022-12-19T10:14:44.772Z,22.45
2022-12-19T10:17:25.462Z,21.52
2022-12-19T10:20:09.596Z,22.65
2022-12-19T10:22:44.595Z,21.48
2022-12-19T10:25:35.168Z,18.67
2022-12-19T10:28:13.393Z,19.73
2022-12-19T10:30:45.961Z,18.58
2022-12-19T10:33:22.800Z,19.55
2022-12-19T10:35:55.239Z,21.83
2022-12-19T10:38:29.434Z,19.52
2022-12-19T10:41:14.711Z,20.55
2022-12-19T10:43:52.045Z,19.80
2022-12-19T10:46:28.288Z,21.13
2022-12-19T10:48:55.814Z,21.38
2022-12-19T10:51:27.185Z,21.90
2022-12-19T10:53:57.325Z,21.13
2022-12-19T10:56:31.689Z,24.42
2022-12-19T10:59:03.984Z,20.85
2022-12-19T11:01:36.205Z,25.98
2022-12-19T11:04:21.970Z,31.75
2022-12-19T11:06:52.327Z,23.25
2022-12-19T11:09:24.477Z,20.75
2022-12-19T11:15:27.324Z,23.70
2022-12-19T11:20:07.136Z,22.47
2022-12-19T11:23:31.355Z,20.08
2022-12-19T11:29:31.661Z,20.42
2022-12-19T11:29:38.524Z,25.55
2022-12-19T11:30:46.254Z,20.45
2022-12-19T11:30:46.432Z,21.70
2022-12-19T11:34:32.030Z,19.63
2022-12-19T11:37:10.240Z,20.48
2022-12-19T11:39:42.716Z,20.80
2022-12-19T11:42:21.422Z,21.58
2022-12-19T11:44:51.932Z,25.85
2022-12-19T11:47:32.311Z,21.65
2022-12-19T11:50:04.432Z,20.45
2022-12-19T11:55:40.744Z,23.60
2022-12-19T11:58:11.984Z,26.80
2022-12-19T12:00:46.421Z,20.15
2022-12-19T12:03:37.012Z,22.93
2022-12-19T12:06:12.696Z,20.23
2022-12-19T12:11:18.240Z,18.92
2022-12-19T12:18:32.177Z,20.83
2022-12-19T12:24:26.263Z,22.63
2022-12-19T12:31:04.227Z,24.65
2022-12-19T12:31:21.920Z,26.27
2022-12-19T12:31:22.520Z,21.15
2022-12-19T12:31:45.833Z,19.40
2022-12-19T12:31:49.434Z,18.13
2022-12-19T12:35:42.532Z,21.52
2022-12-19T12:38:31.701Z,20.13
2022-12-19T12:41:11.106Z,17.05
2022-12-19T12:43:58.816Z,19.00
2022-12-19T12:46:32.330Z,21.88
2022-12-19T12:49:03.896Z,20.10
2022-12-19T12:51:33.100Z,14.68
2022-12-19T12:54:05.014Z,19.40
2022-12-19T12:56:33.415Z,16.88
2022-12-19T12:59:21.123Z,21.48
2022-12-19T13:01:53.172Z,20.90
2022-12-19T13:04:27.579Z,21.55
2022-12-19T13:07:31.261Z,18.42
2022-12-19T13:10:18.597Z,18.08
2022-12-19T13:13:01.319Z,23.25
2022-12-19T13:15:37.354Z,15.40
2022-12-19T13:18:32.546Z,20.45
2022-12-19T13:21:04.247Z,16.88
2022-12-19T13:23:44.879Z,16.02
2022-12-19T13:26:41.993Z,22.75
2022-12-19T13:29:38.751Z,18.63
2022-12-19T13:32:15.821Z,16.88
2022-12-19T13:35:01.346Z,16.00
2022-12-19T13:39:51.640Z,14.60
2022-12-19T13:40:35.005Z,17.98
2022-12-19T13:43:31.356Z,14.75
2022-12-19T13:46:01.014Z,13.90
2022-12-19T13:48:34.165Z,16.08
2022-12-19T13:51:06.209Z,12.85
2022-12-19T13:53:35.877Z,14.70
2022-12-19T13:56:05.586Z,13.82
2022-12-19T13:58:37.595Z,16.73
2022-12-19T14:01:11.487Z,11.23
2022-12-19T14:03:51.334Z,14.30
2022-12-19T14:06:22.664Z,15.63
2022-12-19T14:09:25.146Z,16.70
2022-12-19T14:12:25.975Z,16.95
2022-12-19T14:14:58.037Z,13.98
2022-12-19T14:17:37.466Z,15.05
2022-12-19T14:22:03.705Z,14.10
2022-12-19T14:23:06.374Z,15.48
2022-12-19T14:28:14.683Z,17.75
2022-12-19T14:28:39.523Z,17.20
2022-12-19T14:31:12.190Z,14.05
2022-12-19T14:33:58.907Z,15.93
2022-12-19T14:36:33.666Z,14.43
2022-12-19T14:39:22.153Z,17.50
2022-12-19T14:42:09.538Z,13.20
2022-12-19T14:54:08.900Z,14.98
2022-12-19T14:54:20.956Z,20.42
2022-12-19T14:54:21.092Z,16.48
2022-12-19T14:54:45.180Z,21.33
2022-12-19T14:58:58.432Z,19.13
2022-12-19T15:01:28.670Z,24.98
2022-12-19T15:04:52.641Z,23.83
2022-12-19T15:07:09.009Z,17.27
2022-12-19T15:10:58.786Z,16.25
2022-12-19T15:14:57.296Z,24.33
2022-12-19T15:18:20.854Z,17.50
2022-12-19T15:20:48.409Z,21.52
2022-12-19T15:23:21.655Z,15.52
2022-12-19T15:26:07.358Z,34.40
2022-12-19T15:28:39.875Z,14.40
2022-12-19T15:31:18.087Z,16.20
2022-12-19T15:34:14.504Z,14.75
2022-12-19T15:36:33.190Z,13.38
2022-12-19T15:39:00.687Z,12.50
2022-12-19T15:41:28.653Z,15.18
2022-12-19T15:44:05.411Z,11.77
2022-12-19T15:46:35.430Z,18.33
2022-12-19T15:49:02.994Z,16.98
2022-12-19T15:51:30.464Z,14.75
2022-12-19T15:54:22.242Z,18.92
2022-12-19T15:56:47.618Z,14.52
2022-12-19T15:59:34.810Z,13.32
2022-12-19T16:02:16.259Z,13.00
2022-12-19T16:04:44.364Z,15.27
2022-12-19T16:07:15.992Z,13.82
2022-12-19T16:09:43.512Z,12.57
2022-12-19T16:12:15.330Z,14.68
2022-12-19T16:14:43.019Z,10.20
2022-12-19T16:17:17.426Z,15.95
2022-12-19T16:19:45.110Z,11.13
2022-12-19T16:22:18.360Z,11.68
2022-12-19T16:24:45.841Z,13.48
2022-12-19T16:27:20.443Z,14.30
2022-12-19T16:29:48.007Z,12.05
2022-12-19T16:32:17.538Z,11.52
2022-12-19T16:34:45.111Z,11.38
2022-12-19T16:37:12.631Z,15.25
2022-12-19T16:39:40.101Z,11.57
2022-12-19T16:42:15.583Z,15.98
2022-12-19T16:44:44.653Z,13.05
2022-12-19T16:47:14.108Z,8.85
2022-12-19T16:49:43.557Z,11.13
2022-12-19T16:52:11.177Z,9.85
2022-12-19T16:54:38.639Z,8.50
2022-12-19T16:57:15.564Z,12.15
2022-12-19T16:59:43.205Z,15.00
2022-12-19T17:02:36.351Z,17.70
2022-12-19T17:05:06.216Z,18.88
2022-12-19T17:07:33.683Z,12.93
2022-12-19T17:10:01.207Z,9.63
2022-12-19T17:12:29.185Z,9.30
2022-12-19T17:14:56.679Z,11.10
2022-12-19T17:17:24.736Z,13.20
2022-12-19T17:19:52.421Z,12.73
2022-12-19T17:22:21.552Z,12.38
2022-12-19T17:24:50.061Z,12.35
2022-12-19T17:27:19.106Z,12.52
2022-12-19T17:29:47.074Z,22.48
2022-12-19T17:32:23.302Z,12.38
2022-12-19T17:34:52.682Z,8.93
2022-12-19T17:37:21.800Z,9.10
2022-12-19T17:39:49.341Z,9.68
2022-12-19T17:42:22.462Z,13.55
2022-12-19T17:44:50.227Z,13.85
2022-12-19T17:47:19.929Z,10.35
2022-12-19T17:49:48.944Z,11.10
2022-12-19T17:52:19.236Z,9.13
2022-12-19T17:54:48.420Z,12.02
2022-12-19T17:57:17.147Z,11.40
2022-12-19T17:59:46.313Z,13.18
2022-12-19T18:02:21.521Z,10.48
2022-12-19T18:07:19.088Z,8.60
2022-12-19T18:09:48.042Z,8.30
2022-12-19T18:12:15.707Z,13.85
2022-12-19T18:14:43.318Z,11.18
2022-12-19T18:17:12.702Z,8.77
2022-12-19T18:19:40.824Z,7.88
2022-12-19T18:22:13.104Z,8.15
2022-12-19T18:24:40.745Z,8.88
2022-12-19T18:27:09.681Z,10.70
2022-12-19T18:29:37.169Z,11.95
2022-12-19T18:32:04.944Z,7.88
2022-12-19T18:34:35.435Z,8.18
2022-12-19T18:37:05.276Z,11.10
2022-12-19T18:39:33.982Z,7.40
2022-12-19T18:42:01.882Z,8.68
2022-12-19T18:44:30.891Z,10.20
2022-12-19T18:46:58.896Z,9.25
2022-12-19T18:49:28.609Z,9.02
2022-12-19T18:51:56.276Z,8.05
2022-12-19T18:54:23.758Z,9.75
2022-12-19T18:56:51.818Z,9.43
2022-12-19T18:59:19.934Z,16.63
2022-12-19T19:01:48.867Z,8.00
2022-12-19T19:04:17.835Z,7.43
2022-12-19T19:06:50.889Z,8.70
2022-12-19T19:09:20.870Z,9.98
2022-12-19T19:11:48.447Z,9.15
2022-12-19T19:14:15.968Z,7.90
2022-12-19T19:16:43.731Z,8.25
2022-12-19T19:19:17.661Z,9.75
2022-12-19T19:21:45.175Z,7.25
2022-12-19T19:24:15.800Z,7.75
2022-12-19T19:26:43.334Z,7.60
2022-12-19T19:29:13.326Z,9.68
2022-12-19T19:31:43.500Z,10.65
2022-12-19T19:34:16.348Z,7.85
2022-12-19T19:36:49.318Z,6.70
2022-12-19T19:39:17.491Z,10.27
2022-12-19T19:41:44.964Z,8.38
2022-12-19T19:44:12.528Z,10.05
2022-12-19T19:46:40.045Z,11.20
2022-12-19T19:49:07.612Z,8.93
2022-12-19T19:51:36.454Z,10.75
2022-12-19T19:54:03.928Z,13.55
2022-12-19T19:56:32.242Z,11.55
2022-12-19T19:59:00.590Z,9.77
2022-12-19T20:01:28.440Z,7.53
2022-12-19T20:03:56.074Z,9.25
2022-12-19T20:06:23.637Z,7.57
2022-12-19T20:08:52.550Z,7.63
2022-12-19T20:11:20.682Z,8.38
2022-12-19T20:13:48.173Z,9.80
2022-12-19T20:16:17.904Z,8.02
2022-12-19T20:18:48.392Z,7.68
2022-12-19T20:21:15.945Z,8.45
2022-12-19T20:23:44.647Z,7.80
2022-12-19T20:26:16.142Z,6.22
2022-12-19T20:28:49.077Z,7.28
2022-12-19T20:31:19.110Z,11.38
2022-12-19T20:33:48.010Z,6.97
2022-12-19T20:36:15.856Z,5.95
2022-12-19T20:38:43.706Z,9.98
2022-12-19T20:41:11.352Z,10.52
2022-12-19T20:43:40.216Z,10.15
2022-12-19T20:46:09.668Z,5.90
2022-12-19T20:48:37.701Z,8.07
2022-12-19T20:51:06.189Z,6.60
2022-12-19T20:53:34.546Z,6.93
2022-12-19T20:56:05.349Z,9.23
2022-12-19T20:58:35.161Z,7.07
2022-12-19T21:01:07.306Z,8.73
2022-12-19T21:03:35.455Z,7.57
2022-12-19T21:06:04.016Z,7.55
2022-12-19T21:08:31.920Z,9.38
2022-12-19T21:11:01.054Z,10.88
2022-12-19T21:13:28.782Z,7.90
2022-12-19T21:15:58.364Z,9.60
2022-12-19T21:18:28.148Z,11.75
2022-12-19T21:20:56.629Z,9.25
2022-12-19T21:23:25.189Z,9.20
2022-12-19T21:25:53.243Z,10.80
2022-12-19T21:28:21.240Z,9.88
2022-12-19T21:30:56.233Z,9.07
2022-12-19T21:33:23.779Z,8.68
2022-12-19T21:35:52.598Z,10.20
2022-12-19T21:38:20.334Z,10.05
2022-12-19T21:40:47.806Z,8.27
2022-12-19T21:43:15.267Z,7.65
2022-12-19T21:45:42.830Z,8.70
2022-12-19T21:48:10.363Z,9.05
2022-12-19T21:50:37.850Z,8.27
2022-12-19T21:53:06.677Z,7.60
2022-12-19T21:55:34.145Z,7.95
2022-12-19T21:58:01.588Z,8.93
2022-12-19T22:00:29.086Z,6.22
2022-12-19T22:03:13.468Z,9.32
2022-12-19T22:05:42.178Z,6.78
2022-12-19T22:08:11.879Z,8.70
2022-12-19T22:10:39.461Z,6.57
2022-12-19T22:13:06.961Z,6.93
2022-12-19T22:15:36.474Z,5.90
2022-12-19T22:18:03.965Z,7.53
2022-12-19T22:20:31.430Z,8.43
2022-12-19T22:22:58.924Z,11.63
2022-12-19T22:25:27.728Z,8.18
2022-12-19T22:27:56.288Z,8.35
2022-12-19T22:30:23.754Z,7.60
2022-12-19T22:32:51.213Z,6.85
2022-12-19T22:35:18.709Z,8.57
2022-12-19T22:37:46.323Z,7.30
2022-12-19T22:40:14.242Z,7.18
2022-12-19T22:42:43.088Z,10.43
2022-12-19T22:45:11.268Z,7.13
2022-12-19T22:47:41.851Z,7.65
2022-12-19T22:50:10.323Z,7.57
2022-12-19T22:52:38.577Z,10.40
2022-12-19T22:55:07.040Z,10.30
2022-12-19T22:57:34.567Z,9.30
2022-12-19T23:00:04.855Z,6.85
2022-12-19T23:02:32.533Z,7.45
2022-12-19T23:05:00.149Z,8.90
2022-12-19T23:07:27.596Z,7.03
2022-12-19T23:09:55.276Z,7.78
2022-12-19T23:12:22.721Z,5.28
2022-12-19T23:14:52.465Z,5.88
2022-12-19T23:17:21.264Z,5.72
2022-12-19T23:19:48.727Z,8.27
2022-12-19T23:22:16.195Z,3.95
2022-12-19T23:24:45.664Z,9.20
2022-12-19T23:27:13.301Z,6.22
2022-12-19T23:29:40.831Z,4.93
2022-12-19T23:32:08.337Z,5.10
2022-12-19T23:34:38.503Z,8.10
2022-12-19T23:37:11.055Z,5.63
2022-12-19T23:39:38.869Z,8.43
2022-12-19T23:42:06.422Z,6.82
2022-12-19T23:44:34.138Z,4.65
2022-12-19T23:47:03.796Z,7.60
2022-12-19T23:49:31.939Z,3.38
2022-12-19T23:52:00.814Z,4.60
2022-12-19T23:54:28.534Z,4.90
2022-12-19T23:56:55.998Z,4.40
2022-12-19T23:59:23.608Z,5.20
